sensor_id;sensor_type;location;lat;lon;timestamp;pressure;altitude;pressure_sealevel;temperature
19644;BMP180;9970;-36.854;174.870;2024-02-26T00:01:27;100871.00;;;21.50
19644;BMP180;9970;-36.854;174.870;2024-02-26T00:04:00;100861.00;;;21.60
19644;BMP180;9970;-36.854;174.870;2024-02-26T00:06:34;100859.00;;;21.60
19644;BMP180;9970;-36.854;174.870;2024-02-26T00:09:08;100867.00;;;21.60
19644;BMP180;9970;-36.854;174.870;2024-02-26T00:11:41;100861.00;;;21.60
19644;BMP180;9970;-36.854;174.870;2024-02-26T00:14:14;100872.00;;;21.60
19644;BMP180;9970;-36.854;174.870;2024-02-26T00:16:51;100868.00;;;21.70
19644;BMP180;9970;-36.854;174.870;2024-02-26T00:19:24;100865.00;;;21.70
19644;BMP180;9970;-36.854;174.870;2024-02-26T00:21:56;100868.00;;;21.70
19644;BMP180;9970;-36.854;174.870;2024-02-26T00:24:29;100868.00;;;21.80
19644;BMP180;9970;-36.854;174.870;2024-02-26T00:27:03;100856.00;;;21.80
19644;BMP180;9970;-36.854;174.870;2024-02-26T00:29:41;100863.00;;;21.90
19644;BMP180;9970;-36.854;174.870;2024-02-26T00:32:10;100852.00;;;21.90
19644;BMP180;9970;-36.854;174.870;2024-02-26T00:34:43;100855.00;;;21.90
19644;BMP180;9970;-36.854;174.870;2024-02-26T00:37:20;100845.00;;;21.90
19644;BMP180;9970;-36.854;174.870;2024-02-26T00:39:50;100846.00;;;22.00
19644;BMP180;9970;-36.854;174.870;2024-02-26T00:42:24;100844.00;;;22.00
19644;BMP180;9970;-36.854;174.870;2024-02-26T00:44:57;100849.00;;;22.00
19644;BMP180;9970;-36.854;174.870;2024-02-26T00:47:30;100849.00;;;22.00
19644;BMP180;9970;-36.854;174.870;2024-02-26T00:50:03;100850.00;;;22.00
19644;BMP180;9970;-36.854;174.870;2024-02-26T00:52:36;100844.00;;;22.00
19644;BMP180;9970;-36.854;174.870;2024-02-26T00:55:10;100844.00;;;22.00
19644;BMP180;9970;-36.854;174.870;2024-02-26T00:57:43;100837.00;;;22.00
19644;BMP180;9970;-36.854;174.870;2024-02-26T01:00:17;100835.00;;;22.00
19644;BMP180;9970;-36.854;174.870;2024-02-26T01:02:50;100825.00;;;22.00
19644;BMP180;9970;-36.854;174.870;2024-02-26T01:05:23;100834.00;;;22.00
19644;BMP180;9970;-36.854;174.870;2024-02-26T01:07:56;100831.00;;;22.00
19644;BMP180;9970;-36.854;174.870;2024-02-26T01:10:29;100824.00;;;22.10
19644;BMP180;9970;-36.854;174.870;2024-02-26T01:13:02;100822.00;;;22.10
19644;BMP180;9970;-36.854;174.870;2024-02-26T01:15:35;100826.00;;;22.10
19644;BMP180;9970;-36.854;174.870;2024-02-26T01:18:08;100823.00;;;22.10
19644;BMP180;9970;-36.854;174.870;2024-02-26T01:20:41;100821.00;;;22.10
19644;BMP180;9970;-36.854;174.870;2024-02-26T01:23:14;100817.00;;;22.10
19644;BMP180;9970;-36.854;174.870;2024-02-26T01:25:47;100815.00;;;22.00
19644;BMP180;9970;-36.854;174.870;2024-02-26T01:28:22;100803.00;;;22.00
19644;BMP180;9970;-36.854;174.870;2024-02-26T01:30:55;100806.00;;;21.90
19644;BMP180;9970;-36.854;174.870;2024-02-26T01:33:27;100806.00;;;21.90
19644;BMP180;9970;-36.854;174.870;2024-02-26T01:36:00;100805.00;;;21.90
19644;BMP180;9970;-36.854;174.870;2024-02-26T01:38:39;100806.00;;;21.90
19644;BMP180;9970;-36.854;174.870;2024-02-26T01:41:08;100807.00;;;21.90
19644;BMP180;9970;-36.854;174.870;2024-02-26T01:43:45;100794.00;;;21.80
19644;BMP180;9970;-36.854;174.870;2024-02-26T01:46:18;100790.00;;;21.80
19644;BMP180;9970;-36.854;174.870;2024-02-26T01:48:51;100787.00;;;21.80
19644;BMP180;9970;-36.854;174.870;2024-02-26T01:51:25;100790.00;;;21.80
19644;BMP180;9970;-36.854;174.870;2024-02-26T01:53:59;100781.00;;;21.80
19644;BMP180;9970;-36.854;174.870;2024-02-26T01:56:32;100778.00;;;21.80
19644;BMP180;9970;-36.854;174.870;2024-02-26T01:59:06;100779.00;;;21.80
19644;BMP180;9970;-36.854;174.870;2024-02-26T02:01:44;100776.00;;;21.80
19644;BMP180;9970;-36.854;174.870;2024-02-26T02:04:17;100768.00;;;21.80
19644;BMP180;9970;-36.854;174.870;2024-02-26T02:06:50;100767.00;;;21.80
19644;BMP180;9970;-36.854;174.870;2024-02-26T02:09:24;100761.00;;;21.80
19644;BMP180;9970;-36.854;174.870;2024-02-26T02:11:58;100761.00;;;21.80
19644;BMP180;9970;-36.854;174.870;2024-02-26T02:14:32;100764.00;;;21.90
19644;BMP180;9970;-36.854;174.870;2024-02-26T02:17:05;100752.00;;;21.80
19644;BMP180;9970;-36.854;174.870;2024-02-26T02:19:38;100749.00;;;21.90
19644;BMP180;9970;-36.854;174.870;2024-02-26T02:22:11;100752.00;;;21.90
19644;BMP180;9970;-36.854;174.870;2024-02-26T02:24:45;100743.00;;;21.90
19644;BMP180;9970;-36.854;174.870;2024-02-26T02:27:18;100737.00;;;21.90
19644;BMP180;9970;-36.854;174.870;2024-02-26T02:29:51;100733.00;;;21.90
19644;BMP180;9970;-36.854;174.870;2024-02-26T02:32:25;100724.00;;;21.90
19644;BMP180;9970;-36.854;174.870;2024-02-26T02:34:58;100730.00;;;22.00
19644;BMP180;9970;-36.854;174.870;2024-02-26T02:37:35;100726.00;;;22.00
19644;BMP180;9970;-36.854;174.870;2024-02-26T02:40:09;100705.00;;;22.00
19644;BMP180;9970;-36.854;174.870;2024-02-26T02:42:41;100711.00;;;22.10
19644;BMP180;9970;-36.854;174.870;2024-02-26T02:45:14;100706.00;;;22.10
19644;BMP180;9970;-36.854;174.870;2024-02-26T02:47:48;100698.00;;;22.20
19644;BMP180;9970;-36.854;174.870;2024-02-26T02:50:21;100696.00;;;22.20
19644;BMP180;9970;-36.854;174.870;2024-02-26T02:52:56;100689.00;;;22.20
19644;BMP180;9970;-36.854;174.870;2024-02-26T02:55:28;100683.00;;;22.20
19644;BMP180;9970;-36.854;174.870;2024-02-26T02:58:03;100677.00;;;22.20
19644;BMP180;9970;-36.854;174.870;2024-02-26T03:00:39;100687.00;;;22.20
19644;BMP180;9970;-36.854;174.870;2024-02-26T03:03:12;100685.00;;;22.20
19644;BMP180;9970;-36.854;174.870;2024-02-26T03:05:45;100681.00;;;22.20
19644;BMP180;9970;-36.854;174.870;2024-02-26T03:08:18;100686.00;;;22.20
19644;BMP180;9970;-36.854;174.870;2024-02-26T03:10:50;100682.00;;;22.20
19644;BMP180;9970;-36.854;174.870;2024-02-26T03:13:24;100678.00;;;22.30
19644;BMP180;9970;-36.854;174.870;2024-02-26T03:16:04;100686.00;;;22.30
19644;BMP180;9970;-36.854;174.870;2024-02-26T03:18:35;100684.00;;;22.30
19644;BMP180;9970;-36.854;174.870;2024-02-26T03:21:09;100682.00;;;22.30
19644;BMP180;9970;-36.854;174.870;2024-02-26T03:23:42;100677.00;;;22.30
19644;BMP180;9970;-36.854;174.870;2024-02-26T03:26:15;100676.00;;;22.40
19644;BMP180;9970;-36.854;174.870;2024-02-26T03:28:48;100666.00;;;22.40
19644;BMP180;9970;-36.854;174.870;2024-02-26T03:31:21;100667.00;;;22.40
19644;BMP180;9970;-36.854;174.870;2024-02-26T03:33:54;100657.00;;;22.40
19644;BMP180;9970;-36.854;174.870;2024-02-26T03:36:27;100655.00;;;22.50
19644;BMP180;9970;-36.854;174.870;2024-02-26T03:39:00;100650.00;;;22.50
19644;BMP180;9970;-36.854;174.870;2024-02-26T03:41:39;100654.00;;;22.50
19644;BMP180;9970;-36.854;174.870;2024-02-26T03:44:09;100652.00;;;22.50
19644;BMP180;9970;-36.854;174.870;2024-02-26T03:46:42;100638.00;;;22.40
19644;BMP180;9970;-36.854;174.870;2024-02-26T03:49:15;100642.00;;;22.40
19644;BMP180;9970;-36.854;174.870;2024-02-26T03:51:48;100649.00;;;22.50
19644;BMP180;9970;-36.854;174.870;2024-02-26T03:54:21;100638.00;;;22.50
19644;BMP180;9970;-36.854;174.870;2024-02-26T03:56:54;100647.00;;;22.50
19644;BMP180;9970;-36.854;174.870;2024-02-26T03:59:28;100635.00;;;22.50
19644;BMP180;9970;-36.854;174.870;2024-02-26T04:02:01;100638.00;;;22.50
19644;BMP180;9970;-36.854;174.870;2024-02-26T04:04:37;100591.00;;;22.30
19644;BMP180;9970;-36.854;174.870;2024-02-26T04:07:11;100637.00;;;22.40
19644;BMP180;9970;-36.854;174.870;2024-02-26T04:09:44;100628.00;;;22.40
19644;BMP180;9970;-36.854;174.870;2024-02-26T04:12:17;100634.00;;;22.40
19644;BMP180;9970;-36.854;174.870;2024-02-26T04:14:50;100631.00;;;22.40
19644;BMP180;9970;-36.854;174.870;2024-02-26T04:17:23;100643.00;;;22.40
19644;BMP180;9970;-36.854;174.870;2024-02-26T04:19:56;100641.00;;;22.40
19644;BMP180;9970;-36.854;174.870;2024-02-26T04:22:29;100631.00;;;22.40
19644;BMP180;9970;-36.854;174.870;2024-02-26T04:25:03;100635.00;;;22.40
19644;BMP180;9970;-36.854;174.870;2024-02-26T04:27:36;100630.00;;;22.40
19644;BMP180;9970;-36.854;174.870;2024-02-26T04:30:10;100636.00;;;22.40
19644;BMP180;9970;-36.854;174.870;2024-02-26T04:32:43;100635.00;;;22.40
19644;BMP180;9970;-36.854;174.870;2024-02-26T04:35:16;100630.00;;;22.40
19644;BMP180;9970;-36.854;174.870;2024-02-26T04:37:49;100630.00;;;22.40
19644;BMP180;9970;-36.854;174.870;2024-02-26T04:40:25;100629.00;;;22.40
19644;BMP180;9970;-36.854;174.870;2024-02-26T04:42:56;100637.00;;;22.40
19644;BMP180;9970;-36.854;174.870;2024-02-26T04:45:29;100623.00;;;22.30
19644;BMP180;9970;-36.854;174.870;2024-02-26T04:48:02;100611.00;;;22.30
19644;BMP180;9970;-36.854;174.870;2024-02-26T04:50:38;100612.00;;;22.30
19644;BMP180;9970;-36.854;174.870;2024-02-26T04:53:11;100610.00;;;22.20
19644;BMP180;9970;-36.854;174.870;2024-02-26T04:55:44;100612.00;;;22.20
19644;BMP180;9970;-36.854;174.870;2024-02-26T04:58:17;100600.00;;;22.20
19644;BMP180;9970;-36.854;174.870;2024-02-26T05:00:50;100605.00;;;22.20
19644;BMP180;9970;-36.854;174.870;2024-02-26T05:03:23;100607.00;;;22.10
19644;BMP180;9970;-36.854;174.870;2024-02-26T05:05:56;100607.00;;;22.10
19644;BMP180;9970;-36.854;174.870;2024-02-26T05:08:29;100604.00;;;22.10
19644;BMP180;9970;-36.854;174.870;2024-02-26T05:11:05;100603.00;;;22.10
19644;BMP180;9970;-36.854;174.870;2024-02-26T05:13:37;100612.00;;;22.10
19644;BMP180;9970;-36.854;174.870;2024-02-26T05:16:10;100616.00;;;22.10
19644;BMP180;9970;-36.854;174.870;2024-02-26T05:18:43;100614.00;;;22.10
19644;BMP180;9970;-36.854;174.870;2024-02-26T05:21:16;100617.00;;;22.10
19644;BMP180;9970;-36.854;174.870;2024-02-26T05:23:49;100618.00;;;22.10
19644;BMP180;9970;-36.854;174.870;2024-02-26T05:26:22;100610.00;;;22.10
19644;BMP180;9970;-36.854;174.870;2024-02-26T05:28:55;100611.00;;;22.10
19644;BMP180;9970;-36.854;174.870;2024-02-26T05:31:30;100609.00;;;22.10
19644;BMP180;9970;-36.854;174.870;2024-02-26T05:34:02;100610.00;;;22.10
19644;BMP180;9970;-36.854;174.870;2024-02-26T05:36:36;100599.00;;;22.10
19644;BMP180;9970;-36.854;174.870;2024-02-26T05:39:09;100593.00;;;22.00
19644;BMP180;9970;-36.854;174.870;2024-02-26T05:41:44;100586.00;;;22.00
19644;BMP180;9970;-36.854;174.870;2024-02-26T05:44:17;100586.00;;;22.00
19644;BMP180;9970;-36.854;174.870;2024-02-26T05:46:50;100581.00;;;21.90
19644;BMP180;9970;-36.854;174.870;2024-02-26T05:49:23;100581.00;;;21.90
19644;BMP180;9970;-36.854;174.870;2024-02-26T05:51:56;100589.00;;;21.90
19644;BMP180;9970;-36.854;174.870;2024-02-26T05:54:29;100587.00;;;21.90
19644;BMP180;9970;-36.854;174.870;2024-02-26T05:57:03;100579.00;;;21.90
19644;BMP180;9970;-36.854;174.870;2024-02-26T05:59:36;100568.00;;;21.90
19644;BMP180;9970;-36.854;174.870;2024-02-26T06:02:09;100578.00;;;21.90
19644;BMP180;9970;-36.854;174.870;2024-02-26T06:04:42;100572.00;;;21.90
19644;BMP180;9970;-36.854;174.870;2024-02-26T06:07:15;100562.00;;;21.90
19644;BMP180;9970;-36.854;174.870;2024-02-26T06:09:48;100563.00;;;21.90
19644;BMP180;9970;-36.854;174.870;2024-02-26T06:12:21;100567.00;;;21.90
19644;BMP180;9970;-36.854;174.870;2024-02-26T06:14:54;100573.00;;;21.90
19644;BMP180;9970;-36.854;174.870;2024-02-26T06:17:27;100576.00;;;21.90
19644;BMP180;9970;-36.854;174.870;2024-02-26T06:20:00;100579.00;;;21.80
19644;BMP180;9970;-36.854;174.870;2024-02-26T06:22:34;100571.00;;;21.80
19644;BMP180;9970;-36.854;174.870;2024-02-26T06:25:08;100569.00;;;21.80
19644;BMP180;9970;-36.854;174.870;2024-02-26T06:27:41;100574.00;;;21.80
19644;BMP180;9970;-36.854;174.870;2024-02-26T06:30:15;100568.00;;;21.80
19644;BMP180;9970;-36.854;174.870;2024-02-26T06:32:47;100570.00;;;21.70
19644;BMP180;9970;-36.854;174.870;2024-02-26T06:35:21;100570.00;;;21.70
19644;BMP180;9970;-36.854;174.870;2024-02-26T06:37:54;100571.00;;;21.60
19644;BMP180;9970;-36.854;174.870;2024-02-26T06:40:27;100560.00;;;21.60
19644;BMP180;9970;-36.854;174.870;2024-02-26T06:43:00;100552.00;;;21.60
19644;BMP180;9970;-36.854;174.870;2024-02-26T06:45:33;100552.00;;;21.60
19644;BMP180;9970;-36.854;174.870;2024-02-26T06:48:07;100544.00;;;21.50
19644;BMP180;9970;-36.854;174.870;2024-02-26T06:50:40;100546.00;;;21.50
19644;BMP180;9970;-36.854;174.870;2024-02-26T06:53:16;100540.00;;;21.50
19644;BMP180;9970;-36.854;174.870;2024-02-26T06:55:49;100537.00;;;21.40
19644;BMP180;9970;-36.854;174.870;2024-02-26T06:58:22;100533.00;;;21.40
19644;BMP180;9970;-36.854;174.870;2024-02-26T07:00:56;100531.00;;;21.40
19644;BMP180;9970;-36.854;174.870;2024-02-26T07:03:29;100539.00;;;21.30
19644;BMP180;9970;-36.854;174.870;2024-02-26T07:06:04;100531.00;;;21.30
19644;BMP180;9970;-36.854;174.870;2024-02-26T07:08:39;100538.00;;;21.30
19644;BMP180;9970;-36.854;174.870;2024-02-26T07:11:12;100533.00;;;21.30
19644;BMP180;9970;-36.854;174.870;2024-02-26T07:13:45;100539.00;;;21.30
19644;BMP180;9970;-36.854;174.870;2024-02-26T07:16:18;100533.00;;;21.30
19644;BMP180;9970;-36.854;174.870;2024-02-26T07:18:51;100544.00;;;21.30
19644;BMP180;9970;-36.854;174.870;2024-02-26T07:21:24;100541.00;;;21.30
19644;BMP180;9970;-36.854;174.870;2024-02-26T07:23:57;100539.00;;;21.30
19644;BMP180;9970;-36.854;174.870;2024-02-26T07:26:30;100541.00;;;21.30
19644;BMP180;9970;-36.854;174.870;2024-02-26T07:29:03;100534.00;;;21.30
19644;BMP180;9970;-36.854;174.870;2024-02-26T07:31:42;100525.00;;;21.30
19644;BMP180;9970;-36.854;174.870;2024-02-26T07:34:11;100527.00;;;21.30
19644;BMP180;9970;-36.854;174.870;2024-02-26T07:36:47;100521.00;;;21.30
19644;BMP180;9970;-36.854;174.870;2024-02-26T07:39:20;100517.00;;;21.30
19644;BMP180;9970;-36.854;174.870;2024-02-26T07:41:53;100515.00;;;21.30
19644;BMP180;9970;-36.854;174.870;2024-02-26T07:44:26;100505.00;;;21.30
19644;BMP180;9970;-36.854;174.870;2024-02-26T07:46:59;100505.00;;;21.30
19644;BMP180;9970;-36.854;174.870;2024-02-26T07:49:32;100507.00;;;21.30
19644;BMP180;9970;-36.854;174.870;2024-02-26T07:52:06;100501.00;;;21.30
19644;BMP180;9970;-36.854;174.870;2024-02-26T07:54:39;100505.00;;;21.30
19644;BMP180;9970;-36.854;174.870;2024-02-26T07:57:12;100497.00;;;21.30
19644;BMP180;9970;-36.854;174.870;2024-02-26T07:59:47;100500.00;;;21.30
19644;BMP180;9970;-36.854;174.870;2024-02-26T08:02:25;100505.00;;;21.40
19644;BMP180;9970;-36.854;174.870;2024-02-26T08:05:00;100500.00;;;21.40
19644;BMP180;9970;-36.854;174.870;2024-02-26T08:07:33;100491.00;;;21.40
19644;BMP180;9970;-36.854;174.870;2024-02-26T08:10:09;100508.00;;;21.40
19644;BMP180;9970;-36.854;174.870;2024-02-26T08:12:42;100516.00;;;21.40
19644;BMP180;9970;-36.854;174.870;2024-02-26T08:15:16;100506.00;;;21.40
19644;BMP180;9970;-36.854;174.870;2024-02-26T08:17:50;100498.00;;;21.40
19644;BMP180;9970;-36.854;174.870;2024-02-26T08:20:23;100495.00;;;21.40
19644;BMP180;9970;-36.854;174.870;2024-02-26T08:22:56;100495.00;;;21.50
19644;BMP180;9970;-36.854;174.870;2024-02-26T08:25:29;100491.00;;;21.50
19644;BMP180;9970;-36.854;174.870;2024-02-26T08:28:02;100484.00;;;21.50
19644;BMP180;9970;-36.854;174.870;2024-02-26T08:30:36;100475.00;;;21.50
19644;BMP180;9970;-36.854;174.870;2024-02-26T08:33:13;100473.00;;;21.50
19644;BMP180;9970;-36.854;174.870;2024-02-26T08:35:46;100466.00;;;21.50
19644;BMP180;9970;-36.854;174.870;2024-02-26T08:38:22;100466.00;;;21.50
19644;BMP180;9970;-36.854;174.870;2024-02-26T08:40:55;100468.00;;;21.50
19644;BMP180;9970;-36.854;174.870;2024-02-26T08:43:28;100476.00;;;21.60
19644;BMP180;9970;-36.854;174.870;2024-02-26T08:46:01;100481.00;;;21.60
19644;BMP180;9970;-36.854;174.870;2024-02-26T08:48:34;100480.00;;;21.60
19644;BMP180;9970;-36.854;174.870;2024-02-26T08:51:07;100493.00;;;21.60
19644;BMP180;9970;-36.854;174.870;2024-02-26T08:53:41;100488.00;;;21.60
19644;BMP180;9970;-36.854;174.870;2024-02-26T08:56:14;100498.00;;;21.60
19644;BMP180;9970;-36.854;174.870;2024-02-26T08:58:48;100496.00;;;21.60
19644;BMP180;9970;-36.854;174.870;2024-02-26T09:01:22;100494.00;;;21.60
19644;BMP180;9970;-36.854;174.870;2024-02-26T09:03:55;100486.00;;;21.60
19644;BMP180;9970;-36.854;174.870;2024-02-26T09:06:28;100495.00;;;21.60
19644;BMP180;9970;-36.854;174.870;2024-02-26T09:09:01;100488.00;;;21.60
19644;BMP180;9970;-36.854;174.870;2024-02-26T09:11:40;100496.00;;;21.60
19644;BMP180;9970;-36.854;174.870;2024-02-26T09:14:09;100498.00;;;21.60
19644;BMP180;9970;-36.854;174.870;2024-02-26T09:16:42;100486.00;;;21.60
19644;BMP180;9970;-36.854;174.870;2024-02-26T09:19:15;100480.00;;;21.60
19644;BMP180;9970;-36.854;174.870;2024-02-26T09:21:48;100482.00;;;21.50
19644;BMP180;9970;-36.854;174.870;2024-02-26T09:24:21;100487.00;;;21.50
19644;BMP180;9970;-36.854;174.870;2024-02-26T09:26:54;100495.00;;;21.50
19644;BMP180;9970;-36.854;174.870;2024-02-26T09:29:27;100485.00;;;21.40
19644;BMP180;9970;-36.854;174.870;2024-02-26T09:32:00;100479.00;;;21.40
19644;BMP180;9970;-36.854;174.870;2024-02-26T09:34:34;100490.00;;;21.40
19644;BMP180;9970;-36.854;174.870;2024-02-26T09:37:07;100486.00;;;21.40
19644;BMP180;9970;-36.854;174.870;2024-02-26T09:39:42;100468.00;;;21.40
19644;BMP180;9970;-36.854;174.870;2024-02-26T09:42:15;100476.00;;;21.30
19644;BMP180;9970;-36.854;174.870;2024-02-26T09:44:50;100476.00;;;21.30
19644;BMP180;9970;-36.854;174.870;2024-02-26T09:47:24;100472.00;;;21.30
19644;BMP180;9970;-36.854;174.870;2024-02-26T09:49:59;100472.00;;;21.30
19644;BMP180;9970;-36.854;174.870;2024-02-26T09:52:34;100472.00;;;21.30
19644;BMP180;9970;-36.854;174.870;2024-02-26T09:55:08;100474.00;;;21.30
19644;BMP180;9970;-36.854;174.870;2024-02-26T09:57:43;100469.00;;;21.30
19644;BMP180;9970;-36.854;174.870;2024-02-26T10:00:20;100468.00;;;21.30
19644;BMP180;9970;-36.854;174.870;2024-02-26T10:02:55;100462.00;;;21.30
19644;BMP180;9970;-36.854;174.870;2024-02-26T10:05:30;100461.00;;;21.40
19644;BMP180;9970;-36.854;174.870;2024-02-26T10:08:05;100460.00;;;21.30
19644;BMP180;9970;-36.854;174.870;2024-02-26T10:10:38;100460.00;;;21.40
19644;BMP180;9970;-36.854;174.870;2024-02-26T10:13:11;100451.00;;;21.40
19644;BMP180;9970;-36.854;174.870;2024-02-26T10:15:44;100444.00;;;21.40
19644;BMP180;9970;-36.854;174.870;2024-02-26T10:18:17;100438.00;;;21.40
19644;BMP180;9970;-36.854;174.870;2024-02-26T10:21:00;100434.00;;;21.40
19644;BMP180;9970;-36.854;174.870;2024-02-26T10:23:33;100432.00;;;21.50
19644;BMP180;9970;-36.854;174.870;2024-02-26T10:26:06;100426.00;;;21.50
19644;BMP180;9970;-36.854;174.870;2024-02-26T10:28:41;100416.00;;;21.50
19644;BMP180;9970;-36.854;174.870;2024-02-26T10:31:15;100400.00;;;21.50
19644;BMP180;9970;-36.854;174.870;2024-02-26T10:33:48;100404.00;;;21.50
19644;BMP180;9970;-36.854;174.870;2024-02-26T10:36:22;100405.00;;;21.50
19644;BMP180;9970;-36.854;174.870;2024-02-26T10:38:56;100406.00;;;21.60
19644;BMP180;9970;-36.854;174.870;2024-02-26T10:41:29;100403.00;;;21.60
19644;BMP180;9970;-36.854;174.870;2024-02-26T10:44:02;100395.00;;;21.60
19644;BMP180;9970;-36.854;174.870;2024-02-26T10:46:36;100386.00;;;21.60
19644;BMP180;9970;-36.854;174.870;2024-02-26T10:49:17;100381.00;;;21.60
19644;BMP180;9970;-36.854;174.870;2024-02-26T10:51:55;100381.00;;;21.70
19644;BMP180;9970;-36.854;174.870;2024-02-26T10:54:25;100379.00;;;21.70
19644;BMP180;9970;-36.854;174.870;2024-02-26T10:57:04;100373.00;;;21.70
19644;BMP180;9970;-36.854;174.870;2024-02-26T10:59:39;100372.00;;;21.70
19644;BMP180;9970;-36.854;174.870;2024-02-26T11:02:13;100367.00;;;21.70
19644;BMP180;9970;-36.854;174.870;2024-02-26T11:04:46;100351.00;;;21.80
19644;BMP180;9970;-36.854;174.870;2024-02-26T11:07:20;100352.00;;;21.80
19644;BMP180;9970;-36.854;174.870;2024-02-26T11:09:55;100345.00;;;21.80
19644;BMP180;9970;-36.854;174.870;2024-02-26T11:12:29;100341.00;;;21.80
19644;BMP180;9970;-36.854;174.870;2024-02-26T11:15:02;100338.00;;;21.80
19644;BMP180;9970;-36.854;174.870;2024-02-26T11:17:36;100333.00;;;21.80
19644;BMP180;9970;-36.854;174.870;2024-02-26T11:20:11;100321.00;;;21.80
19644;BMP180;9970;-36.854;174.870;2024-02-26T11:22:45;100330.00;;;21.90
19644;BMP180;9970;-36.854;174.870;2024-02-26T11:25:18;100322.00;;;21.90
19644;BMP180;9970;-36.854;174.870;2024-02-26T11:27:54;100318.00;;;21.90
19644;BMP180;9970;-36.854;174.870;2024-02-26T11:30:29;100308.00;;;21.90
19644;BMP180;9970;-36.854;174.870;2024-02-26T11:33:02;100300.00;;;21.90
19644;BMP180;9970;-36.854;174.870;2024-02-26T11:35:38;100307.00;;;21.90
19644;BMP180;9970;-36.854;174.870;2024-02-26T11:38:23;100285.00;;;21.90
19644;BMP180;9970;-36.854;174.870;2024-02-26T11:40:53;100291.00;;;22.00
19644;BMP180;9970;-36.854;174.870;2024-02-26T11:43:49;100298.00;;;22.00
19644;BMP180;9970;-36.854;174.870;2024-02-26T11:46:31;100290.00;;;22.00
19644;BMP180;9970;-36.854;174.870;2024-02-26T11:51:59;100274.00;;;22.00
19644;BMP180;9970;-36.854;174.870;2024-02-26T11:54:54;100267.00;;;22.00
19644;BMP180;9970;-36.854;174.870;2024-02-26T11:57:40;100274.00;;;22.00
19644;BMP180;9970;-36.854;174.870;2024-02-26T12:00:14;100271.00;;;22.00
19644;BMP180;9970;-36.854;174.870;2024-02-26T12:02:52;100275.00;;;21.90
19644;BMP180;9970;-36.854;174.870;2024-02-26T12:05:33;100268.00;;;21.90
19644;BMP180;9970;-36.854;174.870;2024-02-26T12:08:08;100264.00;;;21.90
19644;BMP180;9970;-36.854;174.870;2024-02-26T12:10:41;100264.00;;;21.90
19644;BMP180;9970;-36.854;174.870;2024-02-26T12:13:15;100257.00;;;21.90
19644;BMP180;9970;-36.854;174.870;2024-02-26T12:15:57;100251.00;;;21.90
19644;BMP180;9970;-36.854;174.870;2024-02-26T12:18:31;100252.00;;;21.90
19644;BMP180;9970;-36.854;174.870;2024-02-26T12:21:04;100250.00;;;21.90
19644;BMP180;9970;-36.854;174.870;2024-02-26T12:23:38;100249.00;;;21.90
19644;BMP180;9970;-36.854;174.870;2024-02-26T12:26:11;100246.00;;;22.00
19644;BMP180;9970;-36.854;174.870;2024-02-26T12:28:49;100248.00;;;22.00
19644;BMP180;9970;-36.854;174.870;2024-02-26T12:31:23;100242.00;;;22.00
19644;BMP180;9970;-36.854;174.870;2024-02-26T12:33:56;100244.00;;;22.00
19644;BMP180;9970;-36.854;174.870;2024-02-26T12:36:29;100231.00;;;22.00
19644;BMP180;9970;-36.854;174.870;2024-02-26T12:39:04;100238.00;;;21.90
19644;BMP180;9970;-36.854;174.870;2024-02-26T12:41:40;100232.00;;;22.00
19644;BMP180;9970;-36.854;174.870;2024-02-26T12:44:15;100225.00;;;22.00
19644;BMP180;9970;-36.854;174.870;2024-02-26T12:46:48;100216.00;;;22.00
19644;BMP180;9970;-36.854;174.870;2024-02-26T12:49:21;100214.00;;;22.00
19644;BMP180;9970;-36.854;174.870;2024-02-26T12:51:55;100213.00;;;22.00
19644;BMP180;9970;-36.854;174.870;2024-02-26T12:54:34;100207.00;;;22.00
19644;BMP180;9970;-36.854;174.870;2024-02-26T12:57:05;100202.00;;;22.00
19644;BMP180;9970;-36.854;174.870;2024-02-26T12:59:39;100205.00;;;22.00
19644;BMP180;9970;-36.854;174.870;2024-02-26T13:02:12;100192.00;;;22.10
19644;BMP180;9970;-36.854;174.870;2024-02-26T13:04:45;100192.00;;;22.00
19644;BMP180;9970;-36.854;174.870;2024-02-26T13:07:18;100189.00;;;22.00
19644;BMP180;9970;-36.854;174.870;2024-02-26T13:09:52;100183.00;;;22.10
19644;BMP180;9970;-36.854;174.870;2024-02-26T13:12:24;100174.00;;;22.10
19644;BMP180;9970;-36.854;174.870;2024-02-26T13:15:01;100185.00;;;22.10
19644;BMP180;9970;-36.854;174.870;2024-02-26T13:17:38;100167.00;;;22.10
19644;BMP180;9970;-36.854;174.870;2024-02-26T13:20:11;100162.00;;;22.10
19644;BMP180;9970;-36.854;174.870;2024-02-26T13:22:46;100166.00;;;22.10
19644;BMP180;9970;-36.854;174.870;2024-02-26T13:25:22;100164.00;;;22.10
19644;BMP180;9970;-36.854;174.870;2024-02-26T13:30:57;100151.00;;;22.10
19644;BMP180;9970;-36.854;174.870;2024-02-26T13:33:31;100144.00;;;22.10
19644;BMP180;9970;-36.854;174.870;2024-02-26T13:36:05;100146.00;;;22.00
19644;BMP180;9970;-36.854;174.870;2024-02-26T13:38:38;100150.00;;;22.10
19644;BMP180;9970;-36.854;174.870;2024-02-26T13:41:12;100137.00;;;22.10
19644;BMP180;9970;-36.854;174.870;2024-02-26T13:43:45;100143.00;;;22.10
19644;BMP180;9970;-36.854;174.870;2024-02-26T13:46:18;100134.00;;;22.10
19644;BMP180;9970;-36.854;174.870;2024-02-26T13:48:51;100147.00;;;22.10
19644;BMP180;9970;-36.854;174.870;2024-02-26T13:51:26;100125.00;;;22.10
19644;BMP180;9970;-36.854;174.870;2024-02-26T13:54:00;100135.00;;;22.10
19644;BMP180;9970;-36.854;174.870;2024-02-26T13:56:33;100121.00;;;22.10
19644;BMP180;9970;-36.854;174.870;2024-02-26T13:59:06;100126.00;;;22.10
19644;BMP180;9970;-36.854;174.870;2024-02-26T14:01:39;100118.00;;;22.10
19644;BMP180;9970;-36.854;174.870;2024-02-26T14:04:12;100114.00;;;22.10
19644;BMP180;9970;-36.854;174.870;2024-02-26T14:06:45;100118.00;;;22.10
19644;BMP180;9970;-36.854;174.870;2024-02-26T14:09:19;100121.00;;;22.10
19644;BMP180;9970;-36.854;174.870;2024-02-26T14:11:53;100126.00;;;22.00
19644;BMP180;9970;-36.854;174.870;2024-02-26T14:14:27;100117.00;;;22.00